sensor_id;sensor_type;location;lat;lon;timestamp;temperature;humidity
32446;DHT22;18899;50.748;7.102;2022-11-14T00:00:43;6.40;99.90
32446;DHT22;18899;50.748;7.102;2022-11-14T00:03:09;6.40;99.90
32446;DHT22;18899;50.748;7.102;2022-11-14T00:05:39;6.40;99.90
32446;DHT22;18899;50.748;7.102;2022-11-14T00:08:05;6.40;99.90
32446;DHT22;18899;50.748;7.102;2022-11-14T00:10:31;6.40;99.90
32446;DHT22;18899;50.748;7.102;2022-11-14T00:12:56;6.50;99.90
32446;DHT22;18899;50.748;7.102;2022-11-14T00:15:22;6.50;99.90
32446;DHT22;18899;50.748;7.102;2022-11-14T00:17:47;6.40;99.90
32446;DHT22;18899;50.748;7.102;2022-11-14T00:20:13;6.30;99.90
32446;DHT22;18899;50.748;7.102;2022-11-14T00:22:38;6.40;99.90
32446;DHT22;18899;50.748;7.102;2022-11-14T00:25:04;6.40;99.90
32446;DHT22;18899;50.748;7.102;2022-11-14T00:27:30;6.30;99.90
32446;DHT22;18899;50.748;7.102;2022-11-14T00:29:55;6.30;99.90
32446;DHT22;18899;50.748;7.102;2022-11-14T00:32:21;6.50;99.90
32446;DHT22;18899;50.748;7.102;2022-11-14T00:34:47;6.60;99.90
32446;DHT22;18899;50.748;7.102;2022-11-14T00:37:13;6.70;99.90
32446;DHT22;18899;50.748;7.102;2022-11-14T00:39:38;6.50;99.90
32446;DHT22;18899;50.748;7.102;2022-11-14T00:42:04;6.40;99.90
32446;DHT22;18899;50.748;7.102;2022-11-14T00:44:30;6.40;99.90
32446;DHT22;18899;50.748;7.102;2022-11-14T00:46:55;6.30;99.90
32446;DHT22;18899;50.748;7.102;2022-11-14T00:49:21;6.20;99.90
32446;DHT22;18899;50.748;7.102;2022-11-14T00:51:46;6.30;99.90
32446;DHT22;18899;50.748;7.102;2022-11-14T00:54:12;6.40;99.90
32446;DHT22;18899;50.748;7.102;2022-11-14T00:56:37;6.40;99.90
32446;DHT22;18899;50.748;7.102;2022-11-14T00:59:03;6.40;99.90
32446;DHT22;18899;50.748;7.102;2022-11-14T01:01:28;6.50;99.90
32446;DHT22;18899;50.748;7.102;2022-11-14T01:03:54;6.50;99.90
32446;DHT22;18899;50.748;7.102;2022-11-14T01:06:20;6.60;99.90
32446;DHT22;18899;50.748;7.102;2022-11-14T01:08:45;6.60;99.90
32446;DHT22;18899;50.748;7.102;2022-11-14T01:11:14;6.50;99.90
32446;DHT22;18899;50.748;7.102;2022-11-14T01:13:41;6.30;99.90
32446;DHT22;18899;50.748;7.102;2022-11-14T01:16:06;6.30;99.90
32446;DHT22;18899;50.748;7.102;2022-11-14T01:18:32;6.30;99.90
32446;DHT22;18899;50.748;7.102;2022-11-14T01:20:57;6.30;99.90
32446;DHT22;18899;50.748;7.102;2022-11-14T01:23:23;6.30;99.90
32446;DHT22;18899;50.748;7.102;2022-11-14T01:25:48;6.20;99.90
32446;DHT22;18899;50.748;7.102;2022-11-14T01:28:17;6.00;99.90
32446;DHT22;18899;50.748;7.102;2022-11-14T01:30:43;6.00;99.90
32446;DHT22;18899;50.748;7.102;2022-11-14T01:33:09;6.00;99.90
32446;DHT22;18899;50.748;7.102;2022-11-14T01:35:36;6.00;99.90
32446;DHT22;18899;50.748;7.102;2022-11-14T01:38:03;5.90;99.90
32446;DHT22;18899;50.748;7.102;2022-11-14T01:40:29;6.00;99.90
32446;DHT22;18899;50.748;7.102;2022-11-14T01:43:24;5.90;99.90
32446;DHT22;18899;50.748;7.102;2022-11-14T01:49:04;6.20;99.90
32446;DHT22;18899;50.748;7.102;2022-11-14T01:51:44;6.30;99.90
32446;DHT22;18899;50.748;7.102;2022-11-14T01:54:21;6.20;99.90
32446;DHT22;18899;50.748;7.102;2022-11-14T01:56:59;6.10;99.90
32446;DHT22;18899;50.748;7.102;2022-11-14T01:59:34;6.00;99.90
32446;DHT22;18899;50.748;7.102;2022-11-14T02:02:05;6.00;99.90
32446;DHT22;18899;50.748;7.102;2022-11-14T02:04:38;6.00;99.90
32446;DHT22;18899;50.748;7.102;2022-11-14T02:07:04;5.90;99.90
32446;DHT22;18899;50.748;7.102;2022-11-14T02:09:34;5.90;99.90
32446;DHT22;18899;50.748;7.102;2022-11-14T02:12:02;5.90;99.90
32446;DHT22;18899;50.748;7.102;2022-11-14T02:14:29;6.00;99.90
32446;DHT22;18899;50.748;7.102;2022-11-14T02:16:55;6.00;99.90
32446;DHT22;18899;50.748;7.102;2022-11-14T02:19:21;5.90;99.90
32446;DHT22;18899;50.748;7.102;2022-11-14T02:21:46;5.70;99.90
32446;DHT22;18899;50.748;7.102;2022-11-14T02:24:12;5.50;99.90
32446;DHT22;18899;50.748;7.102;2022-11-14T02:26:38;5.40;99.90
32446;DHT22;18899;50.748;7.102;2022-11-14T02:29:05;5.30;99.90
32446;DHT22;18899;50.748;7.102;2022-11-14T02:31:32;5.30;99.90
32446;DHT22;18899;50.748;7.102;2022-11-14T02:33:57;5.30;99.90
32446;DHT22;18899;50.748;7.102;2022-11-14T02:36:23;5.30;99.90
32446;DHT22;18899;50.748;7.102;2022-11-14T02:42:01;5.10;99.90
32446;DHT22;18899;50.748;7.102;2022-11-14T02:44:27;4.90;99.90
32446;DHT22;18899;50.748;7.102;2022-11-14T02:46:52;4.80;99.90
32446;DHT22;18899;50.748;7.102;2022-11-14T02:49:18;4.80;99.90
32446;DHT22;18899;50.748;7.102;2022-11-14T02:51:46;4.80;99.90
32446;DHT22;18899;50.748;7.102;2022-11-14T02:54:12;4.80;99.90
32446;DHT22;18899;50.748;7.102;2022-11-14T02:56:37;4.90;99.90
32446;DHT22;18899;50.748;7.102;2022-11-14T02:59:03;5.10;99.90
32446;DHT22;18899;50.748;7.102;2022-11-14T03:01:29;5.20;99.90
32446;DHT22;18899;50.748;7.102;2022-11-14T03:03:55;5.10;99.90
32446;DHT22;18899;50.748;7.102;2022-11-14T03:06:20;5.00;99.90
32446;DHT22;18899;50.748;7.102;2022-11-14T03:08:46;4.90;99.90
32446;DHT22;18899;50.748;7.102;2022-11-14T03:11:11;4.90;99.90
32446;DHT22;18899;50.748;7.102;2022-11-14T03:13:37;4.80;99.90
32446;DHT22;18899;50.748;7.102;2022-11-14T03:16:07;4.80;99.90
32446;DHT22;18899;50.748;7.102;2022-11-14T03:18:33;4.80;99.90
32446;DHT22;18899;50.748;7.102;2022-11-14T03:21:10;4.70;99.90
32446;DHT22;18899;50.748;7.102;2022-11-14T03:23:37;4.80;99.90
32446;DHT22;18899;50.748;7.102;2022-11-14T03:26:05;4.80;99.90
32446;DHT22;18899;50.748;7.102;2022-11-14T03:28:31;4.80;99.90
32446;DHT22;18899;50.748;7.102;2022-11-14T03:30:57;4.90;99.90
32446;DHT22;18899;50.748;7.102;2022-11-14T03:33:22;5.10;99.90
32446;DHT22;18899;50.748;7.102;2022-11-14T03:35:49;5.30;99.90
32446;DHT22;18899;50.748;7.102;2022-11-14T03:38:15;5.50;99.90
32446;DHT22;18899;50.748;7.102;2022-11-14T03:40:41;5.50;99.90
32446;DHT22;18899;50.748;7.102;2022-11-14T03:43:07;5.70;99.90
32446;DHT22;18899;50.748;7.102;2022-11-14T03:45:35;5.60;99.90
32446;DHT22;18899;50.748;7.102;2022-11-14T03:48:01;5.50;99.90
32446;DHT22;18899;50.748;7.102;2022-11-14T03:50:26;5.30;99.90
32446;DHT22;18899;50.748;7.102;2022-11-14T03:52:52;5.30;99.90
32446;DHT22;18899;50.748;7.102;2022-11-14T03:55:17;5.20;99.90
32446;DHT22;18899;50.748;7.102;2022-11-14T03:57:43;5.30;99.90
32446;DHT22;18899;50.748;7.102;2022-11-14T04:00:09;5.50;99.90
32446;DHT22;18899;50.748;7.102;2022-11-14T04:02:34;5.50;99.90
32446;DHT22;18899;50.748;7.102;2022-11-14T04:05:01;5.60;99.90
32446;DHT22;18899;50.748;7.102;2022-11-14T04:07:26;5.60;99.90
32446;DHT22;18899;50.748;7.102;2022-11-14T04:09:52;5.60;99.90
32446;DHT22;18899;50.748;7.102;2022-11-14T04:12:17;5.60;99.90
32446;DHT22;18899;50.748;7.102;2022-11-14T04:14:43;5.60;99.90
32446;DHT22;18899;50.748;7.102;2022-11-14T04:17:09;5.50;99.90
32446;DHT22;18899;50.748;7.102;2022-11-14T04:19:35;5.50;99.90
32446;DHT22;18899;50.748;7.102;2022-11-14T04:22:01;5.30;99.90
32446;DHT22;18899;50.748;7.102;2022-11-14T04:24:26;5.20;99.90
32446;DHT22;18899;50.748;7.102;2022-11-14T04:26:52;5.00;99.90
32446;DHT22;18899;50.748;7.102;2022-11-14T04:29:18;5.00;99.90
32446;DHT22;18899;50.748;7.102;2022-11-14T04:31:43;4.80;99.90
32446;DHT22;18899;50.748;7.102;2022-11-14T04:34:09;4.70;99.90
32446;DHT22;18899;50.748;7.102;2022-11-14T04:36:34;4.60;99.90
32446;DHT22;18899;50.748;7.102;2022-11-14T04:39:00;4.60;99.90
32446;DHT22;18899;50.748;7.102;2022-11-14T04:41:25;4.70;99.90
32446;DHT22;18899;50.748;7.102;2022-11-14T04:43:51;4.80;99.90
32446;DHT22;18899;50.748;7.102;2022-11-14T04:46:17;5.00;99.90
32446;DHT22;18899;50.748;7.102;2022-11-14T04:48:42;5.00;99.90
32446;DHT22;18899;50.748;7.102;2022-11-14T04:51:08;5.00;99.90
32446;DHT22;18899;50.748;7.102;2022-11-14T04:53:33;5.20;99.90
32446;DHT22;18899;50.748;7.102;2022-11-14T04:55:59;5.10;99.90
32446;DHT22;18899;50.748;7.102;2022-11-14T04:58:24;4.90;99.90
32446;DHT22;18899;50.748;7.102;2022-11-14T05:00:51;4.90;99.90
32446;DHT22;18899;50.748;7.102;2022-11-14T05:03:16;4.90;99.90
32446;DHT22;18899;50.748;7.102;2022-11-14T05:05:42;4.70;99.90
32446;DHT22;18899;50.748;7.102;2022-11-14T05:08:07;4.70;99.90
32446;DHT22;18899;50.748;7.102;2022-11-14T05:10:33;4.80;99.90
32446;DHT22;18899;50.748;7.102;2022-11-14T05:12:58;4.80;99.90
32446;DHT22;18899;50.748;7.102;2022-11-14T05:15:24;4.90;99.90
32446;DHT22;18899;50.748;7.102;2022-11-14T05:17:50;4.80;99.90
32446;DHT22;18899;50.748;7.102;2022-11-14T05:20:15;5.00;99.90
32446;DHT22;18899;50.748;7.102;2022-11-14T05:22:41;5.20;99.90
32446;DHT22;18899;50.748;7.102;2022-11-14T05:25:07;5.40;99.90
32446;DHT22;18899;50.748;7.102;2022-11-14T05:27:33;5.30;99.90
32446;DHT22;18899;50.748;7.102;2022-11-14T05:29:58;5.50;99.90
32446;DHT22;18899;50.748;7.102;2022-11-14T05:32:24;5.60;99.90
32446;DHT22;18899;50.748;7.102;2022-11-14T05:34:49;5.70;99.90
32446;DHT22;18899;50.748;7.102;2022-11-14T05:37:15;5.60;99.90
32446;DHT22;18899;50.748;7.102;2022-11-14T05:39:40;5.30;99.90
32446;DHT22;18899;50.748;7.102;2022-11-14T05:42:06;5.30;99.90
32446;DHT22;18899;50.748;7.102;2022-11-14T05:44:31;5.20;99.90
32446;DHT22;18899;50.748;7.102;2022-11-14T05:46:57;5.10;99.90
32446;DHT22;18899;50.748;7.102;2022-11-14T05:49:23;5.00;99.90
32446;DHT22;18899;50.748;7.102;2022-11-14T05:51:48;4.80;99.90
32446;DHT22;18899;50.748;7.102;2022-11-14T05:54:14;4.70;99.90
32446;DHT22;18899;50.748;7.102;2022-11-14T05:56:39;4.70;99.90
32446;DHT22;18899;50.748;7.102;2022-11-14T05:59:05;4.70;99.90
32446;DHT22;18899;50.748;7.102;2022-11-14T06:01:30;4.70;99.90
32446;DHT22;18899;50.748;7.102;2022-11-14T06:03:56;4.70;99.90
32446;DHT22;18899;50.748;7.102;2022-11-14T06:06:22;4.70;99.90
32446;DHT22;18899;50.748;7.102;2022-11-14T06:08:48;4.70;99.90
32446;DHT22;18899;50.748;7.102;2022-11-14T06:11:18;4.70;99.90
32446;DHT22;18899;50.748;7.102;2022-11-14T06:13:45;4.80;99.90
32446;DHT22;18899;50.748;7.102;2022-11-14T06:16:18;4.80;99.90
32446;DHT22;18899;50.748;7.102;2022-11-14T06:18:44;4.80;99.90
32446;DHT22;18899;50.748;7.102;2022-11-14T06:21:15;4.90;99.90
32446;DHT22;18899;50.748;7.102;2022-11-14T06:23:41;5.00;99.90
32446;DHT22;18899;50.748;7.102;2022-11-14T06:26:24;5.10;99.90
32446;DHT22;18899;50.748;7.102;2022-11-14T06:28:51;5.10;99.90
32446;DHT22;18899;50.748;7.102;2022-11-14T06:31:18;5.20;99.90
32446;DHT22;18899;50.748;7.102;2022-11-14T06:33:45;5.30;99.90
32446;DHT22;18899;50.748;7.102;2022-11-14T06:36:11;5.20;99.90
32446;DHT22;18899;50.748;7.102;2022-11-14T06:38:38;5.20;99.90
32446;DHT22;18899;50.748;7.102;2022-11-14T06:41:20;5.20;99.90
32446;DHT22;18899;50.748;7.102;2022-11-14T06:43:47;5.10;99.90
32446;DHT22;18899;50.748;7.102;2022-11-14T06:46:16;5.20;99.90
32446;DHT22;18899;50.748;7.102;2022-11-14T06:48:42;5.20;99.90
32446;DHT22;18899;50.748;7.102;2022-11-14T06:51:10;5.20;99.90
32446;DHT22;18899;50.748;7.102;2022-11-14T06:53:36;5.20;99.90
32446;DHT22;18899;50.748;7.102;2022-11-14T06:56:05;5.20;99.90
32446;DHT22;18899;50.748;7.102;2022-11-14T06:58:34;5.20;99.90
32446;DHT22;18899;50.748;7.102;2022-11-14T07:01:11;5.20;99.90
32446;DHT22;18899;50.748;7.102;2022-11-14T07:03:37;5.10;99.90
32446;DHT22;18899;50.748;7.102;2022-11-14T07:06:04;5.10;99.90
32446;DHT22;18899;50.748;7.102;2022-11-14T07:08:30;5.10;99.90
32446;DHT22;18899;50.748;7.102;2022-11-14T07:11:10;5.10;99.90
32446;DHT22;18899;50.748;7.102;2022-11-14T07:13:36;5.10;99.90
32446;DHT22;18899;50.748;7.102;2022-11-14T07:16:03;5.20;99.90
32446;DHT22;18899;50.748;7.102;2022-11-14T07:18:30;5.30;99.90
32446;DHT22;18899;50.748;7.102;2022-11-14T07:21:04;5.20;99.90
32446;DHT22;18899;50.748;7.102;2022-11-14T07:23:31;5.20;99.90
32446;DHT22;18899;50.748;7.102;2022-11-14T07:26:05;5.20;99.90
32446;DHT22;18899;50.748;7.102;2022-11-14T07:28:34;5.20;99.90
32446;DHT22;18899;50.748;7.102;2022-11-14T07:31:08;5.20;99.90
32446;DHT22;18899;50.748;7.102;2022-11-14T07:33:34;5.30;99.90
32446;DHT22;18899;50.748;7.102;2022-11-14T07:36:00;5.40;99.90
32446;DHT22;18899;50.748;7.102;2022-11-14T07:38:26;5.40;99.90
32446;DHT22;18899;50.748;7.102;2022-11-14T07:40:56;5.70;99.90
32446;DHT22;18899;50.748;7.102;2022-11-14T07:43:22;6.10;99.90
32446;DHT22;18899;50.748;7.102;2022-11-14T07:45:48;6.20;99.90
32446;DHT22;18899;50.748;7.102;2022-11-14T07:48:13;6.40;99.90
32446;DHT22;18899;50.748;7.102;2022-11-14T07:50:39;6.80;99.90
32446;DHT22;18899;50.748;7.102;2022-11-14T07:53:05;7.00;99.90
32446;DHT22;18899;50.748;7.102;2022-11-14T07:55:30;7.10;99.90
32446;DHT22;18899;50.748;7.102;2022-11-14T07:57:58;7.40;99.90
32446;DHT22;18899;50.748;7.102;2022-11-14T08:00:24;7.50;99.90
32446;DHT22;18899;50.748;7.102;2022-11-14T08:02:49;7.50;99.90
32446;DHT22;18899;50.748;7.102;2022-11-14T08:05:15;7.70;99.90
32446;DHT22;18899;50.748;7.102;2022-11-14T08:07:41;7.70;99.90
32446;DHT22;18899;50.748;7.102;2022-11-14T08:10:07;7.80;99.90
32446;DHT22;18899;50.748;7.102;2022-11-14T08:12:33;8.00;99.90
32446;DHT22;18899;50.748;7.102;2022-11-14T08:14:58;8.00;99.90
32446;DHT22;18899;50.748;7.102;2022-11-14T08:17:24;8.20;99.90
32446;DHT22;18899;50.748;7.102;2022-11-14T08:19:49;8.30;99.90
32446;DHT22;18899;50.748;7.102;2022-11-14T08:22:15;8.20;99.90
32446;DHT22;18899;50.748;7.102;2022-11-14T08:24:40;8.20;99.90
32446;DHT22;18899;50.748;7.102;2022-11-14T08:27:06;8.20;99.90
32446;DHT22;18899;50.748;7.102;2022-11-14T08:29:31;8.20;99.90
32446;DHT22;18899;50.748;7.102;2022-11-14T08:31:57;8.20;99.90
32446;DHT22;18899;50.748;7.102;2022-11-14T08:34:24;8.30;99.90
32446;DHT22;18899;50.748;7.102;2022-11-14T08:36:49;8.30;99.90
32446;DHT22;18899;50.748;7.102;2022-11-14T08:39:15;8.40;99.90
32446;DHT22;18899;50.748;7.102;2022-11-14T08:41:40;8.40;99.90
32446;DHT22;18899;50.748;7.102;2022-11-14T08:44:06;8.30;99.90
32446;DHT22;18899;50.748;7.102;2022-11-14T08:46:31;8.50;99.90
32446;DHT22;18899;50.748;7.102;2022-11-14T08:48:57;8.50;99.90
32446;DHT22;18899;50.748;7.102;2022-11-14T08:51:22;8.50;99.90
32446;DHT22;18899;50.748;7.102;2022-11-14T08:53:48;8.50;99.90
32446;DHT22;18899;50.748;7.102;2022-11-14T08:56:15;8.60;99.90
32446;DHT22;18899;50.748;7.102;2022-11-14T08:58:41;8.70;99.90
32446;DHT22;18899;50.748;7.102;2022-11-14T09:01:06;8.70;99.90
32446;DHT22;18899;50.748;7.102;2022-11-14T09:03:33;8.70;99.90
32446;DHT22;18899;50.748;7.102;2022-11-14T09:06:00;8.80;99.90
32446;DHT22;18899;50.748;7.102;2022-11-14T09:08:27;8.90;99.90
32446;DHT22;18899;50.748;7.102;2022-11-14T09:10:53;8.90;99.90
32446;DHT22;18899;50.748;7.102;2022-11-14T09:13:18;8.90;99.90
32446;DHT22;18899;50.748;7.102;2022-11-14T09:15:44;9.00;99.90
32446;DHT22;18899;50.748;7.102;2022-11-14T09:18:10;8.80;99.90
32446;DHT22;18899;50.748;7.102;2022-11-14T09:20:36;8.80;99.90
32446;DHT22;18899;50.748;7.102;2022-11-14T09:23:02;8.80;99.90
32446;DHT22;18899;50.748;7.102;2022-11-14T09:25:29;9.00;99.90
32446;DHT22;18899;50.748;7.102;2022-11-14T09:27:55;9.10;99.90
32446;DHT22;18899;50.748;7.102;2022-11-14T09:30:21;9.10;99.90
32446;DHT22;18899;50.748;7.102;2022-11-14T09:32:50;9.10;99.90
32446;DHT22;18899;50.748;7.102;2022-11-14T09:35:16;9.30;99.90
32446;DHT22;18899;50.748;7.102;2022-11-14T09:37:41;9.50;99.90
32446;DHT22;18899;50.748;7.102;2022-11-14T09:40:09;9.60;99.90
32446;DHT22;18899;50.748;7.102;2022-11-14T09:42:54;9.50;99.90
32446;DHT22;18899;50.748;7.102;2022-11-14T09:45:21;9.50;99.90
32446;DHT22;18899;50.748;7.102;2022-11-14T09:47:50;9.60;99.90
32446;DHT22;18899;50.748;7.102;2022-11-14T09:50:23;9.60;99.90
32446;DHT22;18899;50.748;7.102;2022-11-14T09:52:59;9.70;99.90
32446;DHT22;18899;50.748;7.102;2022-11-14T09:55:33;9.60;99.90
32446;DHT22;18899;50.748;7.102;2022-11-14T09:58:00;9.50;99.90
32446;DHT22;18899;50.748;7.102;2022-11-14T10:00:53;9.40;99.90
32446;DHT22;18899;50.748;7.102;2022-11-14T10:11:49;9.80;99.90
32446;DHT22;18899;50.748;7.102;2022-11-14T10:17:38;9.90;99.90
32446;DHT22;18899;50.748;7.102;2022-11-14T10:25:46;10.10;99.90
32446;DHT22;18899;50.748;7.102;2022-11-14T10:28:38;10.00;99.90
32446;DHT22;18899;50.748;7.102;2022-11-14T10:31:34;10.10;99.90
32446;DHT22;18899;50.748;7.102;2022-11-14T10:37:25;10.10;99.90
32446;DHT22;18899;50.748;7.102;2022-11-14T10:40:00;10.10;99.90
32446;DHT22;18899;50.748;7.102;2022-11-14T10:42:36;10.00;99.90
32446;DHT22;18899;50.748;7.102;2022-11-14T10:45:22;10.00;99.90
32446;DHT22;18899;50.748;7.102;2022-11-14T10:48:07;10.00;99.90
32446;DHT22;18899;50.748;7.102;2022-11-14T10:50:56;10.00;99.90
32446;DHT22;18899;50.748;7.102;2022-11-14T10:56:10;10.10;99.90
32446;DHT22;18899;50.748;7.102;2022-11-14T10:58:36;10.20;99.90
32446;DHT22;18899;50.748;7.102;2022-11-14T11:06:39;10.50;99.90
32446;DHT22;18899;50.748;7.102;2022-11-14T11:09:10;10.50;99.90
32446;DHT22;18899;50.748;7.102;2022-11-14T11:11:58;10.50;99.90
32446;DHT22;18899;50.748;7.102;2022-11-14T11:14:25;10.30;99.90
32446;DHT22;18899;50.748;7.102;2022-11-14T11:19:36;10.30;99.90
32446;DHT22;18899;50.748;7.102;2022-11-14T11:22:01;10.40;99.90
32446;DHT22;18899;50.748;7.102;2022-11-14T11:24:35;10.40;99.90
32446;DHT22;18899;50.748;7.102;2022-11-14T11:27:26;10.10;99.90
32446;DHT22;18899;50.748;7.102;2022-11-14T11:30:16;10.10;99.90
32446;DHT22;18899;50.748;7.102;2022-11-14T11:32:42;10.20;99.90
32446;DHT22;18899;50.748;7.102;2022-11-14T11:35:15;10.20;99.90
32446;DHT22;18899;50.748;7.102;2022-11-14T11:38:01;10.20;99.90
32446;DHT22;18899;50.748;7.102;2022-11-14T11:40:28;10.40;99.90
32446;DHT22;18899;50.748;7.102;2022-11-14T11:45:46;10.30;99.90
32446;DHT22;18899;50.748;7.102;2022-11-14T11:48:21;10.50;99.90
32446;DHT22;18899;50.748;7.102;2022-11-14T11:50:48;10.60;99.90
32446;DHT22;18899;50.748;7.102;2022-11-14T11:53:34;10.70;99.90
32446;DHT22;18899;50.748;7.102;2022-11-14T11:56:16;10.80;99.90
32446;DHT22;18899;50.748;7.102;2022-11-14T11:58:52;10.80;99.90
32446;DHT22;18899;50.748;7.102;2022-11-14T12:01:19;11.00;99.90
32446;DHT22;18899;50.748;7.102;2022-11-14T12:03:54;11.20;99.90
32446;DHT22;18899;50.748;7.102;2022-11-14T12:06:22;11.30;99.90
32446;DHT22;18899;50.748;7.102;2022-11-14T12:09:17;11.30;99.90
32446;DHT22;18899;50.748;7.102;2022-11-14T12:11:50;11.30;99.90
32446;DHT22;18899;50.748;7.102;2022-11-14T12:19:56;11.30;99.90
32446;DHT22;18899;50.748;7.102;2022-11-14T12:22:49;11.30;99.90
32446;DHT22;18899;50.748;7.102;2022-11-14T12:25:37;11.20;99.90
32446;DHT22;18899;50.748;7.102;2022-11-14T12:28:18;11.20;99.90
32446;DHT22;18899;50.748;7.102;2022-11-14T12:30:49;11.30;99.90
32446;DHT22;18899;50.748;7.102;2022-11-14T12:35:51;11.30;99.90
32446;DHT22;18899;50.748;7.102;2022-11-14T12:38:18;11.30;99.90
32446;DHT22;18899;50.748;7.102;2022-11-14T12:40:59;11.30;99.90
32446;DHT22;18899;50.748;7.102;2022-11-14T12:43:31;10.90;99.90
32446;DHT22;18899;50.748;7.102;2022-11-14T12:45:59;10.90;99.90
32446;DHT22;18899;50.748;7.102;2022-11-14T12:50:51;10.80;99.90
32446;DHT22;18899;50.748;7.102;2022-11-14T13:01:49;10.60;99.90
32446;DHT22;18899;50.748;7.102;2022-11-14T13:07:27;10.80;99.90
32446;DHT22;18899;50.748;7.102;2022-11-14T13:10:02;10.70;99.90
32446;DHT22;18899;50.748;7.102;2022-11-14T13:21:03;10.50;99.90
32446;DHT22;18899;50.748;7.102;2022-11-14T13:28:43;10.30;99.90
32446;DHT22;18899;50.748;7.102;2022-11-14T13:31:19;10.40;99.90
32446;DHT22;18899;50.748;7.102;2022-11-14T13:36:29;10.40;99.90
32446;DHT22;18899;50.748;7.102;2022-11-14T13:44:51;10.40;99.90
32446;DHT22;18899;50.748;7.102;2022-11-14T13:50:31;10.60;99.90
32446;DHT22;18899;50.748;7.102;2022-11-14T13:52:57;10.50;99.90
32446;DHT22;18899;50.748;7.102;2022-11-14T13:55:46;10.40;99.90
32446;DHT22;18899;50.748;7.102;2022-11-14T14:07:22;10.40;99.90
32446;DHT22;18899;50.748;7.102;2022-11-14T14:15:51;10.30;99.90
32446;DHT22;18899;50.748;7.102;2022-11-14T14:31:52;10.50;99.90
32446;DHT22;18899;50.748;7.102;2022-11-14T14:34:31;10.40;99.90
32446;DHT22;18899;50.748;7.102;2022-11-14T14:36:57;10.60;99.90
32446;DHT22;18899;50.748;7.102;2022-11-14T14:39:25;10.60;99.90
32446;DHT22;18899;50.748;7.102;2022-11-14T14:41:53;10.70;99.90
32446;DHT22;18899;50.748;7.102;2022-11-14T14:44:27;10.80;99.90
32446;DHT22;18899;50.748;7.102;2022-11-14T14:46:56;10.80;99.90
32446;DHT22;18899;50.748;7.102;2022-11-14T14:49:27;10.90;99.90
32446;DHT22;18899;50.748;7.102;2022-11-14T14:51:54;10.80;99.90
32446;DHT22;18899;50.748;7.102;2022-11-14T14:54:28;10.80;99.90
32446;DHT22;18899;50.748;7.102;2022-11-14T14:56:56;10.80;99.90
32446;DHT22;18899;50.748;7.102;2022-11-14T14:59:26;10.80;99.90
32446;DHT22;18899;50.748;7.102;2022-11-14T15:01:52;10.70;99.90
32446;DHT22;18899;50.748;7.102;2022-11-14T15:04:21;10.70;99.90
32446;DHT22;18899;50.748;7.102;2022-11-14T15:06:47;10.80;99.90
32446;DHT22;18899;50.748;7.102;2022-11-14T15:09:27;10.70;99.90
32446;DHT22;18899;50.748;7.102;2022-11-14T15:11:56;10.80;99.90
32446;DHT22;18899;50.748;7.102;2022-11-14T15:14:30;10.80;99.90
32446;DHT22;18899;50.748;7.102;2022-11-14T15:16:58;10.80;99.90
32446;DHT22;18899;50.748;7.102;2022-11-14T15:19:27;10.60;99.90
32446;DHT22;18899;50.748;7.102;2022-11-14T15:24:44;10.50;99.90
32446;DHT22;18899;50.748;7.102;2022-11-14T15:27:26;10.40;99.90
32446;DHT22;18899;50.748;7.102;2022-11-14T15:29:59;10.40;99.90
32446;DHT22;18899;50.748;7.102;2022-11-14T15:32:25;10.20;99.90
32446;DHT22;18899;50.748;7.102;2022-11-14T15:37:33;10.20;99.90
32446;DHT22;18899;50.748;7.102;2022-11-14T15:40:19;10.30;99.90
32446;DHT22;18899;50.748;7.102;2022-11-14T15:42:45;10.40;99.90
32446;DHT22;18899;50.748;7.102;2022-11-14T15:45:28;10.60;99.90
32446;DHT22;18899;50.748;7.102;2022-11-14T15:48:01;10.60;99.90
32446;DHT22;18899;50.748;7.102;2022-11-14T15:50:31;10.60;99.90
32446;DHT22;18899;50.748;7.102;2022-11-14T15:53:05;10.60;99.90
32446;DHT22;18899;50.748;7.102;2022-11-14T15:55:31;10.60;99.90
32446;DHT22;18899;50.748;7.102;2022-11-14T15:57:57;10.50;99.90
32446;DHT22;18899;50.748;7.102;2022-11-14T16:00:23;10.50;99.90
32446;DHT22;18899;50.748;7.102;2022-11-14T16:02:54;10.40;99.90
32446;DHT22;18899;50.748;7.102;2022-11-14T16:05:25;10.40;99.90
32446;DHT22;18899;50.748;7.102;2022-11-14T16:07:52;10.30;99.90
32446;DHT22;18899;50.748;7.102;2022-11-14T16:10:20;10.30;99.90
32446;DHT22;18899;50.748;7.102;2022-11-14T16:12:45;10.40;99.90
32446;DHT22;18899;50.748;7.102;2022-11-14T16:15:11;10.40;99.90
32446;DHT22;18899;50.748;7.102;2022-11-14T16:17:39;10.30;99.90
32446;DHT22;18899;50.748;7.102;2022-11-14T16:20:06;10.30;99.90
32446;DHT22;18899;50.748;7.102;2022-11-14T16:22:35;10.30;99.90
32446;DHT22;18899;50.748;7.102;2022-11-14T16:25:00;10.40;99.90
32446;DHT22;18899;50.748;7.102;2022-11-14T16:27:26;10.50;99.90
32446;DHT22;18899;50.748;7.102;2022-11-14T16:29:52;10.40;99.90
32446;DHT22;18899;50.748;7.102;2022-11-14T16:32:18;10.50;99.90
32446;DHT22;18899;50.748;7.102;2022-11-14T16:34:44;10.40;99.90
32446;DHT22;18899;50.748;7.102;2022-11-14T16:37:11;10.30;99.90
32446;DHT22;18899;50.748;7.102;2022-11-14T16:39:37;10.20;99.90
32446;DHT22;18899;50.748;7.102;2022-11-14T16:42:03;10.20;99.90
32446;DHT22;18899;50.748;7.102;2022-11-14T16:44:29;10.20;99.90
32446;DHT22;18899;50.748;7.102;2022-11-14T16:46:55;10.20;99.90
32446;DHT22;18899;50.748;7.102;2022-11-14T16:49:21;10.20;99.90
32446;DHT22;18899;50.748;7.102;2022-11-14T16:51:48;10.20;99.90
32446;DHT22;18899;50.748;7.102;2022-11-14T16:54:15;10.10;99.90
32446;DHT22;18899;50.748;7.102;2022-11-14T16:56:41;10.30;99.90
32446;DHT22;18899;50.748;7.102;2022-11-14T16:59:08;10.30;99.90
32446;DHT22;18899;50.748;7.102;2022-11-14T17:01:34;10.20;99.90
32446;DHT22;18899;50.748;7.102;2022-11-14T17:04:00;10.30;99.90
32446;DHT22;18899;50.748;7.102;2022-11-14T17:06:26;10.40;99.90
32446;DHT22;18899;50.748;7.102;2022-11-14T17:08:56;10.40;99.90
32446;DHT22;18899;50.748;7.102;2022-11-14T17:11:22;10.40;99.90
32446;DHT22;18899;50.748;7.102;2022-11-14T17:13:48;10.40;99.90
32446;DHT22;18899;50.748;7.102;2022-11-14T17:16:15;10.40;99.90
32446;DHT22;18899;50.748;7.102;2022-11-14T17:18:41;10.30;99.90
32446;DHT22;18899;50.748;7.102;2022-11-14T17:21:08;10.30;99.90
32446;DHT22;18899;50.748;7.102;2022-11-14T17:23:34;10.30;99.90
32446;DHT22;18899;50.748;7.102;2022-11-14T17:26:04;10.30;99.90
32446;DHT22;18899;50.748;7.102;2022-11-14T17:28:32;10.10;99.90
32446;DHT22;18899;50.748;7.102;2022-11-14T17:30:57;10.10;99.90
32446;DHT22;18899;50.748;7.102;2022-11-14T17:33:24;10.10;99.90
32446;DHT22;18899;50.748;7.102;2022-11-14T17:35:50;10.10;99.90
32446;DHT22;18899;50.748;7.102;2022-11-14T17:38:16;10.10;99.90
32446;DHT22;18899;50.748;7.102;2022-11-14T17:40:41;10.10;99.90
32446;DHT22;18899;50.748;7.102;2022-11-14T17:43:07;10.00;99.90
32446;DHT22;18899;50.748;7.102;2022-11-14T17:45:32;10.10;99.90
32446;DHT22;18899;50.748;7.102;2022-11-14T17:47:58;10.10;99.90
32446;DHT22;18899;50.748;7.102;2022-11-14T17:50:23;10.20;99.90